Terminal Aerodrome Forecast
Issued by NWS Wilmington, OH

Current Version | Previous Version | Text Only | Print | Product List | Glossary Off
Versions: 1 2 3 4 5 6 7 8 9 10 11 12 13 14

000
FTUS41 KILN 230535
TAFCMH
TAF
KCMH 230535Z 2306/2406 35005KT P6SM SCT018
      TEMPO 2306/2307 OVC018
     FM230700 36004KT 5SM BR OVC015
     FM231400 01005KT P6SM SCT025
     FM231600 03007KT P6SM SCT035
     FM232300 05003KT P6SM SKC=

USA.gov is the U.S. government's official web portal to all federal, state and local government web resources and services.